sensor_id;sensor_type;location;lat;lon;timestamp;pressure;altitude;pressure_sealevel;temperature;humidity
69528;BME280;57136;51.986;4.468;2023-01-19T00:00:00;100107.06;;;4.04;100.00
69528;BME280;57136;51.986;4.468;2023-01-19T00:02:25;100108.63;;;3.96;100.00
69528;BME280;57136;51.986;4.468;2023-01-19T00:04:51;100113.13;;;4.08;100.00
69528;BME280;57136;51.986;4.468;2023-01-19T00:07:16;100120.28;;;4.22;100.00
69528;BME280;57136;51.986;4.468;2023-01-19T00:09:41;100132.72;;;3.98;100.00
69528;BME280;57136;51.986;4.468;2023-01-19T00:12:07;100142.69;;;3.81;100.00
69528;BME280;57136;51.986;4.468;2023-01-19T00:14:32;100137.47;;;3.38;100.00
69528;BME280;57136;51.986;4.468;2023-01-19T00:16:58;100143.63;;;3.05;100.00
69528;BME280;57136;51.986;4.468;2023-01-19T00:19:26;100141.38;;;2.84;100.00
69528;BME280;57136;51.986;4.468;2023-01-19T00:21:52;100148.09;;;2.77;100.00
69528;BME280;57136;51.986;4.468;2023-01-19T00:24:17;100148.53;;;2.96;100.00
69528;BME280;57136;51.986;4.468;2023-01-19T00:26:43;100142.22;;;2.83;100.00
69528;BME280;57136;51.986;4.468;2023-01-19T00:29:12;100148.28;;;2.87;100.00
69528;BME280;57136;51.986;4.468;2023-01-19T00:31:38;100158.94;;;3.00;100.00
69528;BME280;57136;51.986;4.468;2023-01-19T00:34:05;100165.25;;;3.13;100.00
69528;BME280;57136;51.986;4.468;2023-01-19T00:36:31;100158.66;;;3.25;100.00
69528;BME280;57136;51.986;4.468;2023-01-19T00:38:56;100174.50;;;3.42;100.00
69528;BME280;57136;51.986;4.468;2023-01-19T00:41:21;100169.72;;;3.22;100.00
69528;BME280;57136;51.986;4.468;2023-01-19T00:44:07;100162.50;;;3.06;100.00
69528;BME280;57136;51.986;4.468;2023-01-19T00:46:33;100169.47;;;3.10;100.00
69528;BME280;57136;51.986;4.468;2023-01-19T00:48:58;100163.03;;;2.92;100.00
69528;BME280;57136;51.986;4.468;2023-01-19T00:51:23;100174.44;;;3.02;100.00
69528;BME280;57136;51.986;4.468;2023-01-19T00:53:49;100177.53;;;3.25;100.00
69528;BME280;57136;51.986;4.468;2023-01-19T00:56:15;100175.19;;;2.98;100.00
69528;BME280;57136;51.986;4.468;2023-01-19T00:58:40;100180.91;;;2.88;100.00
69528;BME280;57136;51.986;4.468;2023-01-19T01:01:05;100183.19;;;3.10;100.00
69528;BME280;57136;51.986;4.468;2023-01-19T01:03:31;100189.56;;;2.90;100.00
69528;BME280;57136;51.986;4.468;2023-01-19T01:05:57;100193.88;;;2.91;100.00
69528;BME280;57136;51.986;4.468;2023-01-19T01:08:23;100186.53;;;2.71;100.00
69528;BME280;57136;51.986;4.468;2023-01-19T01:10:49;100178.00;;;2.74;100.00
69528;BME280;57136;51.986;4.468;2023-01-19T01:13:14;100173.09;;;2.83;100.00
69528;BME280;57136;51.986;4.468;2023-01-19T01:15:40;100189.25;;;2.77;100.00
69528;BME280;57136;51.986;4.468;2023-01-19T01:18:05;100184.88;;;2.75;100.00
69528;BME280;57136;51.986;4.468;2023-01-19T01:20:30;100191.59;;;2.68;100.00
69528;BME280;57136;51.986;4.468;2023-01-19T01:22:58;100219.16;;;2.74;100.00
69528;BME280;57136;51.986;4.468;2023-01-19T01:25:26;100219.31;;;2.78;100.00
69528;BME280;57136;51.986;4.468;2023-01-19T01:27:52;100222.25;;;2.94;100.00
69528;BME280;57136;51.986;4.468;2023-01-19T01:30:18;100229.41;;;3.06;100.00
69528;BME280;57136;51.986;4.468;2023-01-19T01:32:44;100224.03;;;2.63;100.00
69528;BME280;57136;51.986;4.468;2023-01-19T01:35:10;100224.78;;;2.59;100.00
69528;BME280;57136;51.986;4.468;2023-01-19T01:37:36;100232.94;;;2.76;100.00
69528;BME280;57136;51.986;4.468;2023-01-19T01:40:03;100235.22;;;2.65;100.00
69528;BME280;57136;51.986;4.468;2023-01-19T01:42:30;100228.34;;;2.64;100.00
69528;BME280;57136;51.986;4.468;2023-01-19T01:45:00;100240.50;;;2.69;100.00
69528;BME280;57136;51.986;4.468;2023-01-19T01:47:30;100242.50;;;2.80;100.00
69528;BME280;57136;51.986;4.468;2023-01-19T01:50:19;100234.84;;;2.83;100.00
69528;BME280;57136;51.986;4.468;2023-01-19T01:53:06;100250.47;;;2.89;100.00
69528;BME280;57136;51.986;4.468;2023-01-19T01:55:40;100252.81;;;2.81;100.00
69528;BME280;57136;51.986;4.468;2023-01-19T01:58:10;100246.25;;;2.93;100.00
69528;BME280;57136;51.986;4.468;2023-01-19T02:00:37;100243.72;;;2.94;100.00
69528;BME280;57136;51.986;4.468;2023-01-19T02:03:25;100239.09;;;2.81;100.00
69528;BME280;57136;51.986;4.468;2023-01-19T02:05:54;100235.59;;;2.79;100.00
69528;BME280;57136;51.986;4.468;2023-01-19T02:11:45;100253.63;;;2.79;100.00
69528;BME280;57136;51.986;4.468;2023-01-19T02:14:30;100263.91;;;2.79;100.00
69528;BME280;57136;51.986;4.468;2023-01-19T02:16:55;100270.09;;;2.85;100.00
69528;BME280;57136;51.986;4.468;2023-01-19T02:19:28;100284.56;;;2.82;100.00
69528;BME280;57136;51.986;4.468;2023-01-19T02:21:57;100306.16;;;2.87;100.00
69528;BME280;57136;51.986;4.468;2023-01-19T02:24:24;100305.00;;;2.76;100.00
69528;BME280;57136;51.986;4.468;2023-01-19T02:26:50;100302.22;;;2.68;100.00
69528;BME280;57136;51.986;4.468;2023-01-19T02:29:21;100300.34;;;2.62;100.00
69528;BME280;57136;51.986;4.468;2023-01-19T02:31:49;100307.06;;;2.57;100.00
69528;BME280;57136;51.986;4.468;2023-01-19T02:34:16;100294.81;;;2.48;100.00
69528;BME280;57136;51.986;4.468;2023-01-19T02:36:56;100297.00;;;2.36;100.00
69528;BME280;57136;51.986;4.468;2023-01-19T02:39:29;100295.41;;;2.39;100.00
69528;BME280;57136;51.986;4.468;2023-01-19T02:42:20;100289.22;;;2.33;100.00
69528;BME280;57136;51.986;4.468;2023-01-19T02:44:48;100292.09;;;2.44;100.00
69528;BME280;57136;51.986;4.468;2023-01-19T02:47:14;100297.00;;;2.36;100.00
69528;BME280;57136;51.986;4.468;2023-01-19T02:49:39;100302.13;;;2.34;100.00
69528;BME280;57136;51.986;4.468;2023-01-19T02:52:07;100316.44;;;2.26;100.00
69528;BME280;57136;51.986;4.468;2023-01-19T03:00:20;100278.53;;;2.19;100.00
69528;BME280;57136;51.986;4.468;2023-01-19T03:10:59;100256.00;;;2.71;100.00
69528;BME280;57136;51.986;4.468;2023-01-19T03:13:43;100260.25;;;2.70;100.00
69528;BME280;57136;51.986;4.468;2023-01-19T03:16:15;100255.38;;;2.81;100.00
69528;BME280;57136;51.986;4.468;2023-01-19T03:18:45;100255.09;;;2.70;100.00
69528;BME280;57136;51.986;4.468;2023-01-19T03:21:15;100255.91;;;2.68;100.00
69528;BME280;57136;51.986;4.468;2023-01-19T03:23:44;100263.00;;;2.77;100.00
69528;BME280;57136;51.986;4.468;2023-01-19T03:26:14;100260.97;;;2.65;100.00
69528;BME280;57136;51.986;4.468;2023-01-19T03:28:41;100274.47;;;2.90;100.00
69528;BME280;57136;51.986;4.468;2023-01-19T03:31:16;100300.28;;;2.91;100.00
69528;BME280;57136;51.986;4.468;2023-01-19T03:33:47;100304.97;;;2.74;100.00
69528;BME280;57136;51.986;4.468;2023-01-19T03:36:23;100313.25;;;2.64;100.00
69528;BME280;57136;51.986;4.468;2023-01-19T03:38:51;100298.38;;;2.85;100.00
69528;BME280;57136;51.986;4.468;2023-01-19T03:41:18;100307.31;;;2.98;100.00
69528;BME280;57136;51.986;4.468;2023-01-19T03:43:47;100297.34;;;2.77;100.00
69528;BME280;57136;51.986;4.468;2023-01-19T03:46:15;100307.69;;;2.80;100.00
69528;BME280;57136;51.986;4.468;2023-01-19T03:48:44;100320.59;;;3.14;100.00
69528;BME280;57136;51.986;4.468;2023-01-19T03:51:10;100326.03;;;2.93;100.00
69528;BME280;57136;51.986;4.468;2023-01-19T03:53:36;100321.47;;;2.82;100.00
69528;BME280;57136;51.986;4.468;2023-01-19T03:56:02;100311.53;;;2.96;100.00
69528;BME280;57136;51.986;4.468;2023-01-19T03:58:27;100323.91;;;3.43;100.00
69528;BME280;57136;51.986;4.468;2023-01-19T04:00:53;100330.25;;;3.56;100.00
69528;BME280;57136;51.986;4.468;2023-01-19T04:03:18;100327.94;;;3.67;100.00
69528;BME280;57136;51.986;4.468;2023-01-19T04:05:44;100333.81;;;3.62;100.00
69528;BME280;57136;51.986;4.468;2023-01-19T04:08:10;100338.03;;;3.58;100.00
69528;BME280;57136;51.986;4.468;2023-01-19T04:10:36;100331.81;;;3.50;100.00
69528;BME280;57136;51.986;4.468;2023-01-19T04:13:02;100350.19;;;3.64;100.00
69528;BME280;57136;51.986;4.468;2023-01-19T04:15:29;100327.09;;;3.68;100.00
69528;BME280;57136;51.986;4.468;2023-01-19T04:17:58;100328.91;;;3.72;100.00
69528;BME280;57136;51.986;4.468;2023-01-19T04:20:24;100325.91;;;3.89;100.00
69528;BME280;57136;51.986;4.468;2023-01-19T04:22:51;100322.19;;;3.78;100.00
69528;BME280;57136;51.986;4.468;2023-01-19T04:25:16;100327.00;;;4.00;100.00
69528;BME280;57136;51.986;4.468;2023-01-19T04:27:41;100318.41;;;4.00;100.00
69528;BME280;57136;51.986;4.468;2023-01-19T04:30:07;100325.41;;;4.07;100.00
69528;BME280;57136;51.986;4.468;2023-01-19T04:32:34;100323.19;;;3.84;100.00
69528;BME280;57136;51.986;4.468;2023-01-19T04:34:59;100325.06;;;3.92;100.00
69528;BME280;57136;51.986;4.468;2023-01-19T04:37:24;100327.22;;;4.11;100.00
69528;BME280;57136;51.986;4.468;2023-01-19T04:39:50;100326.97;;;3.99;100.00
69528;BME280;57136;51.986;4.468;2023-01-19T04:42:16;100329.88;;;4.14;100.00
69528;BME280;57136;51.986;4.468;2023-01-19T04:44:41;100328.53;;;4.30;100.00
69528;BME280;57136;51.986;4.468;2023-01-19T04:47:07;100335.28;;;4.25;100.00
69528;BME280;57136;51.986;4.468;2023-01-19T04:49:33;100330.72;;;4.53;100.00
69528;BME280;57136;51.986;4.468;2023-01-19T04:52:01;100328.88;;;4.47;100.00
69528;BME280;57136;51.986;4.468;2023-01-19T04:54:27;100323.34;;;4.30;100.00
69528;BME280;57136;51.986;4.468;2023-01-19T04:56:52;100336.63;;;4.49;100.00
69528;BME280;57136;51.986;4.468;2023-01-19T04:59:17;100339.94;;;4.42;100.00
69528;BME280;57136;51.986;4.468;2023-01-19T05:01:44;100350.28;;;4.42;100.00
69528;BME280;57136;51.986;4.468;2023-01-19T05:04:09;100345.88;;;4.38;100.00
69528;BME280;57136;51.986;4.468;2023-01-19T05:06:36;100352.81;;;4.40;100.00
69528;BME280;57136;51.986;4.468;2023-01-19T05:09:01;100350.88;;;4.30;100.00
69528;BME280;57136;51.986;4.468;2023-01-19T05:11:26;100351.81;;;4.35;100.00
69528;BME280;57136;51.986;4.468;2023-01-19T05:13:52;100352.41;;;4.22;100.00
69528;BME280;57136;51.986;4.468;2023-01-19T05:16:17;100354.09;;;4.21;100.00
69528;BME280;57136;51.986;4.468;2023-01-19T05:18:43;100358.25;;;4.14;100.00
69528;BME280;57136;51.986;4.468;2023-01-19T05:21:08;100361.00;;;4.22;100.00
69528;BME280;57136;51.986;4.468;2023-01-19T05:23:33;100357.59;;;3.85;100.00
69528;BME280;57136;51.986;4.468;2023-01-19T05:26:00;100359.91;;;3.74;100.00
69528;BME280;57136;51.986;4.468;2023-01-19T05:28:29;100361.94;;;3.87;100.00
69528;BME280;57136;51.986;4.468;2023-01-19T05:30:55;100361.16;;;3.90;100.00
69528;BME280;57136;51.986;4.468;2023-01-19T05:33:21;100362.53;;;3.77;100.00
69528;BME280;57136;51.986;4.468;2023-01-19T05:35:51;100360.47;;;3.62;100.00
69528;BME280;57136;51.986;4.468;2023-01-19T05:38:16;100362.16;;;3.62;100.00
69528;BME280;57136;51.986;4.468;2023-01-19T05:40:42;100361.84;;;3.49;100.00
69528;BME280;57136;51.986;4.468;2023-01-19T05:43:07;100367.88;;;3.50;100.00
69528;BME280;57136;51.986;4.468;2023-01-19T05:45:32;100364.00;;;3.67;100.00
69528;BME280;57136;51.986;4.468;2023-01-19T05:47:58;100367.31;;;3.62;100.00
69528;BME280;57136;51.986;4.468;2023-01-19T05:50:24;100368.31;;;3.67;100.00
69528;BME280;57136;51.986;4.468;2023-01-19T05:52:49;100365.56;;;3.60;100.00
69528;BME280;57136;51.986;4.468;2023-01-19T05:55:18;100381.03;;;3.60;100.00
69528;BME280;57136;51.986;4.468;2023-01-19T05:57:44;100387.94;;;3.63;100.00
69528;BME280;57136;51.986;4.468;2023-01-19T06:00:09;100380.03;;;3.55;100.00
69528;BME280;57136;51.986;4.468;2023-01-19T06:02:35;100382.53;;;3.52;100.00
69528;BME280;57136;51.986;4.468;2023-01-19T06:05:00;100381.41;;;3.42;100.00
69528;BME280;57136;51.986;4.468;2023-01-19T06:07:26;100382.34;;;3.44;100.00
69528;BME280;57136;51.986;4.468;2023-01-19T06:09:51;100389.13;;;3.41;100.00
69528;BME280;57136;51.986;4.468;2023-01-19T06:12:17;100385.72;;;3.42;100.00
69528;BME280;57136;51.986;4.468;2023-01-19T06:14:43;100399.00;;;3.25;100.00
69528;BME280;57136;51.986;4.468;2023-01-19T06:17:09;100398.81;;;3.51;100.00
69528;BME280;57136;51.986;4.468;2023-01-19T06:19:34;100409.63;;;3.70;100.00
69528;BME280;57136;51.986;4.468;2023-01-19T06:21:59;100413.78;;;3.65;100.00
69528;BME280;57136;51.986;4.468;2023-01-19T06:24:25;100415.88;;;3.80;100.00
69528;BME280;57136;51.986;4.468;2023-01-19T06:26:52;100422.97;;;3.88;100.00
69528;BME280;57136;51.986;4.468;2023-01-19T06:29:17;100431.13;;;4.05;100.00
69528;BME280;57136;51.986;4.468;2023-01-19T06:31:43;100420.31;;;4.20;100.00
69528;BME280;57136;51.986;4.468;2023-01-19T06:34:08;100420.63;;;4.34;100.00
69528;BME280;57136;51.986;4.468;2023-01-19T06:36:34;100432.50;;;4.28;100.00
69528;BME280;57136;51.986;4.468;2023-01-19T06:38:59;100436.63;;;4.21;100.00
69528;BME280;57136;51.986;4.468;2023-01-19T06:41:27;100433.78;;;4.09;100.00
69528;BME280;57136;51.986;4.468;2023-01-19T06:43:53;100439.91;;;4.14;100.00
69528;BME280;57136;51.986;4.468;2023-01-19T06:46:19;100447.53;;;4.09;100.00
69528;BME280;57136;51.986;4.468;2023-01-19T06:48:44;100444.19;;;4.13;100.00
69528;BME280;57136;51.986;4.468;2023-01-19T06:51:09;100446.91;;;4.18;100.00
69528;BME280;57136;51.986;4.468;2023-01-19T06:53:35;100453.38;;;4.02;100.00
69528;BME280;57136;51.986;4.468;2023-01-19T06:56:00;100462.31;;;4.16;100.00
69528;BME280;57136;51.986;4.468;2023-01-19T06:58:27;100458.72;;;4.10;100.00
69528;BME280;57136;51.986;4.468;2023-01-19T07:00:53;100466.66;;;4.19;100.00
69528;BME280;57136;51.986;4.468;2023-01-19T07:03:20;100468.13;;;4.08;100.00
69528;BME280;57136;51.986;4.468;2023-01-19T07:05:49;100466.31;;;4.03;100.00
69528;BME280;57136;51.986;4.468;2023-01-19T07:08:15;100464.22;;;3.88;100.00
69528;BME280;57136;51.986;4.468;2023-01-19T07:10:40;100475.59;;;3.97;100.00
69528;BME280;57136;51.986;4.468;2023-01-19T07:13:05;100478.59;;;3.80;100.00
69528;BME280;57136;51.986;4.468;2023-01-19T07:15:30;100475.19;;;3.81;100.00
69528;BME280;57136;51.986;4.468;2023-01-19T07:17:57;100488.16;;;3.84;100.00
69528;BME280;57136;51.986;4.468;2023-01-19T07:20:23;100488.63;;;3.69;100.00
69528;BME280;57136;51.986;4.468;2023-01-19T07:22:54;100486.66;;;3.59;100.00
69528;BME280;57136;51.986;4.468;2023-01-19T07:25:20;100491.19;;;3.69;100.00
69528;BME280;57136;51.986;4.468;2023-01-19T07:27:45;100504.97;;;3.70;100.00
69528;BME280;57136;51.986;4.468;2023-01-19T07:30:11;100505.53;;;3.59;100.00
69528;BME280;57136;51.986;4.468;2023-01-19T07:32:36;100505.38;;;3.53;100.00
69528;BME280;57136;51.986;4.468;2023-01-19T07:35:02;100509.03;;;3.62;100.00
69528;BME280;57136;51.986;4.468;2023-01-19T07:37:27;100518.50;;;3.61;100.00
69528;BME280;57136;51.986;4.468;2023-01-19T07:39:53;100520.25;;;3.64;100.00
69528;BME280;57136;51.986;4.468;2023-01-19T07:42:18;100520.78;;;3.52;100.00
69528;BME280;57136;51.986;4.468;2023-01-19T07:44:43;100521.56;;;3.49;100.00
69528;BME280;57136;51.986;4.468;2023-01-19T07:47:09;100532.03;;;3.54;100.00
69528;BME280;57136;51.986;4.468;2023-01-19T07:49:37;100527.88;;;3.59;100.00
69528;BME280;57136;51.986;4.468;2023-01-19T07:52:02;100538.13;;;3.57;100.00
69528;BME280;57136;51.986;4.468;2023-01-19T07:54:27;100529.84;;;3.69;100.00
69528;BME280;57136;51.986;4.468;2023-01-19T07:56:53;100543.53;;;3.67;100.00
69528;BME280;57136;51.986;4.468;2023-01-19T07:59:19;100557.66;;;3.80;100.00
69528;BME280;57136;51.986;4.468;2023-01-19T08:01:44;100559.03;;;4.00;100.00
69528;BME280;57136;51.986;4.468;2023-01-19T08:04:09;100551.66;;;4.13;99.45
69528;BME280;57136;51.986;4.468;2023-01-19T08:06:36;100561.25;;;4.18;98.87
69528;BME280;57136;51.986;4.468;2023-01-19T08:09:03;100566.31;;;4.15;98.88
69528;BME280;57136;51.986;4.468;2023-01-19T08:11:32;100563.53;;;4.08;99.00
69528;BME280;57136;51.986;4.468;2023-01-19T08:13:57;100567.84;;;4.42;98.12
69528;BME280;57136;51.986;4.468;2023-01-19T08:16:23;100573.94;;;4.44;97.61
69528;BME280;57136;51.986;4.468;2023-01-19T08:18:48;100576.41;;;4.40;97.63
69528;BME280;57136;51.986;4.468;2023-01-19T08:21:13;100570.19;;;4.33;97.98
69528;BME280;57136;51.986;4.468;2023-01-19T08:23:39;100583.44;;;4.12;98.77
69528;BME280;57136;51.986;4.468;2023-01-19T08:26:31;100580.28;;;3.90;99.39
69528;BME280;57136;51.986;4.468;2023-01-19T08:29:00;100586.75;;;4.08;98.80
69528;BME280;57136;51.986;4.468;2023-01-19T08:31:26;100585.19;;;4.14;97.62
69528;BME280;57136;51.986;4.468;2023-01-19T08:33:52;100593.09;;;3.88;97.24
69528;BME280;57136;51.986;4.468;2023-01-19T08:36:18;100590.03;;;4.02;97.68
69528;BME280;57136;51.986;4.468;2023-01-19T08:38:44;100589.34;;;4.09;97.11
69528;BME280;57136;51.986;4.468;2023-01-19T08:41:11;100604.50;;;4.29;96.58
69528;BME280;57136;51.986;4.468;2023-01-19T08:43:36;100595.22;;;4.35;95.59
69528;BME280;57136;51.986;4.468;2023-01-19T08:46:03;100600.28;;;4.66;94.40
69528;BME280;57136;51.986;4.468;2023-01-19T08:48:28;100604.53;;;4.64;94.05
69528;BME280;57136;51.986;4.468;2023-01-19T08:50:54;100600.84;;;4.54;93.76
69528;BME280;57136;51.986;4.468;2023-01-19T08:53:19;100602.66;;;4.58;93.65
69528;BME280;57136;51.986;4.468;2023-01-19T08:55:47;100602.09;;;4.70;93.73
69528;BME280;57136;51.986;4.468;2023-01-19T08:58:12;100606.25;;;4.65;93.46
69528;BME280;57136;51.986;4.468;2023-01-19T09:00:38;100607.66;;;4.86;92.58
69528;BME280;57136;51.986;4.468;2023-01-19T09:03:05;100606.50;;;4.74;92.20
69528;BME280;57136;51.986;4.468;2023-01-19T09:05:33;100614.84;;;4.99;91.75
69528;BME280;57136;51.986;4.468;2023-01-19T09:08:00;100606.75;;;5.22;91.02
69528;BME280;57136;51.986;4.468;2023-01-19T09:10:27;100602.84;;;5.41;89.87
69528;BME280;57136;51.986;4.468;2023-01-19T09:12:56;100612.59;;;5.53;88.66
69528;BME280;57136;51.986;4.468;2023-01-19T09:15:22;100621.59;;;5.70;87.22
69528;BME280;57136;51.986;4.468;2023-01-19T09:17:47;100621.75;;;5.80;86.39
69528;BME280;57136;51.986;4.468;2023-01-19T09:20:12;100628.28;;;6.02;84.56
69528;BME280;57136;51.986;4.468;2023-01-19T09:22:38;100625.97;;;6.18;80.96
69528;BME280;57136;51.986;4.468;2023-01-19T09:25:05;100631.50;;;6.36;79.77
69528;BME280;57136;51.986;4.468;2023-01-19T09:27:30;100632.34;;;6.35;79.43
69528;BME280;57136;51.986;4.468;2023-01-19T09:29:56;100632.91;;;6.19;79.58
69528;BME280;57136;51.986;4.468;2023-01-19T09:32:21;100638.50;;;6.42;77.71
69528;BME280;57136;51.986;4.468;2023-01-19T09:34:47;100639.91;;;6.73;76.26
69528;BME280;57136;51.986;4.468;2023-01-19T09:37:13;100639.84;;;6.69;75.01
69528;BME280;57136;51.986;4.468;2023-01-19T09:39:40;100643.09;;;6.11;76.71
69528;BME280;57136;51.986;4.468;2023-01-19T09:44:40;100645.63;;;6.54;74.83
69528;BME280;57136;51.986;4.468;2023-01-19T09:47:16;100652.03;;;6.25;74.30
69528;BME280;57136;51.986;4.468;2023-01-19T09:49:48;100653.09;;;6.37;74.10
69528;BME280;57136;51.986;4.468;2023-01-19T09:52:16;100657.47;;;6.41;73.85
69528;BME280;57136;51.986;4.468;2023-01-19T09:57:12;100661.44;;;7.85;67.62
69528;BME280;57136;51.986;4.468;2023-01-19T09:59:38;100657.97;;;8.60;64.35
69528;BME280;57136;51.986;4.468;2023-01-19T10:07:32;100665.19;;;8.10;62.15
69528;BME280;57136;51.986;4.468;2023-01-19T10:10:11;100670.06;;;8.59;63.14
69528;BME280;57136;51.986;4.468;2023-01-19T10:12:51;100675.13;;;8.47;59.09
69528;BME280;57136;51.986;4.468;2023-01-19T10:15:21;100676.50;;;8.14;59.92
69528;BME280;57136;51.986;4.468;2023-01-19T10:17:56;100683.09;;;8.62;59.67
69528;BME280;57136;51.986;4.468;2023-01-19T10:20:30;100677.78;;;9.63;56.51
69528;BME280;57136;51.986;4.468;2023-01-19T10:23:00;100687.13;;;9.26;55.04
69528;BME280;57136;51.986;4.468;2023-01-19T10:25:29;100677.53;;;9.19;54.78
69528;BME280;57136;51.986;4.468;2023-01-19T10:27:56;100680.47;;;9.70;55.11
69528;BME280;57136;51.986;4.468;2023-01-19T10:30:25;100677.22;;;8.80;57.01
69528;BME280;57136;51.986;4.468;2023-01-19T10:32:51;100680.72;;;8.86;56.94
69528;BME280;57136;51.986;4.468;2023-01-19T10:35:22;100681.75;;;9.08;55.67
69528;BME280;57136;51.986;4.468;2023-01-19T10:37:57;100693.38;;;8.53;55.78
69528;BME280;57136;51.986;4.468;2023-01-19T10:40:35;100681.69;;;8.98;54.92
69528;BME280;57136;51.986;4.468;2023-01-19T10:46:27;100672.63;;;8.56;56.50
69528;BME280;57136;51.986;4.468;2023-01-19T10:48:55;100690.97;;;7.96;57.13
69528;BME280;57136;51.986;4.468;2023-01-19T10:51:20;100685.06;;;8.06;57.23
69528;BME280;57136;51.986;4.468;2023-01-19T10:53:54;100683.84;;;7.81;57.34
69528;BME280;57136;51.986;4.468;2023-01-19T10:56:24;100678.72;;;7.23;58.54
69528;BME280;57136;51.986;4.468;2023-01-19T10:58:51;100682.16;;;7.82;59.23
69528;BME280;57136;51.986;4.468;2023-01-19T11:01:23;100668.75;;;7.50;59.09
69528;BME280;57136;51.986;4.468;2023-01-19T11:03:49;100669.03;;;7.11;60.80
69528;BME280;57136;51.986;4.468;2023-01-19T11:06:24;100676.00;;;7.15;61.82
69528;BME280;57136;51.986;4.468;2023-01-19T11:08:52;100684.75;;;7.22;62.02
69528;BME280;57136;51.986;4.468;2023-01-19T11:11:22;100681.78;;;6.49;63.05
69528;BME280;57136;51.986;4.468;2023-01-19T11:14:06;100681.09;;;6.59;65.56
69528;BME280;57136;51.986;4.468;2023-01-19T11:16:34;100686.25;;;6.58;62.66
69528;BME280;57136;51.986;4.468;2023-01-19T11:18:59;100683.09;;;6.74;61.38
69528;BME280;57136;51.986;4.468;2023-01-19T11:21:29;100688.56;;;6.92;61.64
69528;BME280;57136;51.986;4.468;2023-01-19T11:24:02;100684.94;;;7.34;63.30
69528;BME280;57136;51.986;4.468;2023-01-19T11:26:38;100683.72;;;7.70;58.52
69528;BME280;57136;51.986;4.468;2023-01-19T11:29:05;100686.03;;;8.15;56.09
69528;BME280;57136;51.986;4.468;2023-01-19T11:31:39;100685.44;;;7.71;55.42
69528;BME280;57136;51.986;4.468;2023-01-19T11:34:22;100677.72;;;7.14;56.91
69528;BME280;57136;51.986;4.468;2023-01-19T11:37:00;100681.00;;;7.61;57.71
69528;BME280;57136;51.986;4.468;2023-01-19T11:39:28;100679.13;;;8.17;55.75
69528;BME280;57136;51.986;4.468;2023-01-19T11:41:58;100676.28;;;7.97;56.28
69528;BME280;57136;51.986;4.468;2023-01-19T11:47:01;100672.16;;;8.13;56.62
69528;BME280;57136;51.986;4.468;2023-01-19T11:52:47;100672.47;;;7.11;57.77
69528;BME280;57136;51.986;4.468;2023-01-19T11:55:23;100674.47;;;7.28;60.33
69528;BME280;57136;51.986;4.468;2023-01-19T11:57:50;100673.28;;;7.67;58.92
69528;BME280;57136;51.986;4.468;2023-01-19T12:00:32;100659.06;;;7.39;59.56
69528;BME280;57136;51.986;4.468;2023-01-19T12:03:07;100662.03;;;7.05;59.70
69528;BME280;57136;51.986;4.468;2023-01-19T12:05:39;100670.97;;;7.26;61.71
69528;BME280;57136;51.986;4.468;2023-01-19T12:08:12;100671.56;;;7.66;57.86
69528;BME280;57136;51.986;4.468;2023-01-19T12:10:43;100664.09;;;7.28;58.28
69528;BME280;57136;51.986;4.468;2023-01-19T12:13:24;100671.91;;;6.29;61.73
69528;BME280;57136;51.986;4.468;2023-01-19T12:15:59;100679.13;;;6.02;62.76
69528;BME280;57136;51.986;4.468;2023-01-19T12:18:32;100666.41;;;6.57;63.32
69528;BME280;57136;51.986;4.468;2023-01-19T12:20:59;100670.25;;;7.33;62.93
69528;BME280;57136;51.986;4.468;2023-01-19T12:23:55;100660.97;;;7.50;60.93
69528;BME280;57136;51.986;4.468;2023-01-19T12:28:56;100669.47;;;6.86;63.41
69528;BME280;57136;51.986;4.468;2023-01-19T12:31:23;100672.09;;;6.37;63.43
69528;BME280;57136;51.986;4.468;2023-01-19T12:33:50;100676.81;;;6.14;64.79
69528;BME280;57136;51.986;4.468;2023-01-19T12:38:49;100663.44;;;5.54;65.51
69528;BME280;57136;51.986;4.468;2023-01-19T12:41:29;100670.44;;;5.58;65.20
69528;BME280;57136;51.986;4.468;2023-01-19T12:46:40;100672.97;;;5.18;65.74
69528;BME280;57136;51.986;4.468;2023-01-19T12:49:26;100663.72;;;5.66;66.29
69528;BME280;57136;51.986;4.468;2023-01-19T13:00:33;100670.56;;;6.99;58.29
69528;BME280;57136;51.986;4.468;2023-01-19T13:05:54;100666.00;;;8.04;57.60
69528;BME280;57136;51.986;4.468;2023-01-19T13:08:22;100669.44;;;8.02;55.27
69528;BME280;57136;51.986;4.468;2023-01-19T13:18:45;100676.72;;;8.37;52.13
69528;BME280;57136;51.986;4.468;2023-01-19T13:21:13;100672.38;;;8.33;52.42
69528;BME280;57136;51.986;4.468;2023-01-19T13:23:53;100672.03;;;8.03;55.13
69528;BME280;57136;51.986;4.468;2023-01-19T13:26:20;100670.03;;;8.56;54.99
69528;BME280;57136;51.986;4.468;2023-01-19T13:28:52;100679.66;;;8.63;53.71
69528;BME280;57136;51.986;4.468;2023-01-19T13:31:19;100677.69;;;8.45;52.39
69528;BME280;57136;51.986;4.468;2023-01-19T13:33:51;100672.19;;;8.17;54.22
69528;BME280;57136;51.986;4.468;2023-01-19T13:36:19;100683.16;;;7.30;56.76
69528;BME280;57136;51.986;4.468;2023-01-19T13:38:48;100677.81;;;7.20;57.92
69528;BME280;57136;51.986;4.468;2023-01-19T13:41:17;100684.44;;;7.60;58.18
69528;BME280;57136;51.986;4.468;2023-01-19T13:43:45;100686.06;;;8.19;56.46
69528;BME280;57136;51.986;4.468;2023-01-19T13:46:12;100684.16;;;8.81;54.97
69528;BME280;57136;51.986;4.468;2023-01-19T13:48:38;100687.75;;;8.97;54.07
69528;BME280;57136;51.986;4.468;2023-01-19T13:51:17;100690.59;;;8.39;53.58
69528;BME280;57136;51.986;4.468;2023-01-19T13:53:57;100686.38;;;8.47;53.50
69528;BME280;57136;51.986;4.468;2023-01-19T13:56:24;100682.66;;;8.23;54.43
69528;BME280;57136;51.986;4.468;2023-01-19T14:01:30;100687.91;;;7.60;58.66
69528;BME280;57136;51.986;4.468;2023-01-19T14:03:57;100687.13;;;7.66;57.26
69528;BME280;57136;51.986;4.468;2023-01-19T14:06:34;100692.72;;;7.97;58.08